createdAt,value
2023-05-19T00:11:04.796Z,5.80
2023-05-19T00:16:31.280Z,6.85
2023-05-19T00:22:45.475Z,10.50
2023-05-19T00:33:55.948Z,7.82
2023-05-19T00:39:48.046Z,8.45
2023-05-19T00:50:34.618Z,8.07
2023-05-19T00:55:57.869Z,5.30
2023-05-19T01:12:28.846Z,8.32
2023-05-19T01:29:33.261Z,7.53
2023-05-19T01:35:09.101Z,6.50
2023-05-19T01:40:28.822Z,4.90
2023-05-19T01:46:25.053Z,6.03
2023-05-19T01:51:59.867Z,6.28
2023-05-19T02:21:03.025Z,9.80
2023-05-19T02:27:40.547Z,5.80
2023-05-19T02:33:04.937Z,11.27
2023-05-19T02:44:40.796Z,7.90
2023-05-19T02:50:08.589Z,7.82
2023-05-19T03:01:54.441Z,12.20
2023-05-19T03:13:50.311Z,8.27
2023-05-19T03:19:11.123Z,9.98
2023-05-19T03:25:21.823Z,6.68
2023-05-19T03:30:36.528Z,6.90
2023-05-19T03:36:01.942Z,12.90
2023-05-19T03:53:58.702Z,7.03
2023-05-19T03:59:17.009Z,8.25
2023-05-19T04:10:24.312Z,12.18
2023-05-19T04:15:58.949Z,10.88
2023-05-19T04:21:26.808Z,7.82
2023-05-19T04:32:42.164Z,8.75
2023-05-19T04:39:01.528Z,6.75
2023-05-19T04:44:38.178Z,7.78
2023-05-19T04:50:15.865Z,10.02
2023-05-19T05:01:24.267Z,9.70
2023-05-19T05:07:14.423Z,10.23
2023-05-19T05:13:17.793Z,7.03
2023-05-19T05:25:06.038Z,13.07
2023-05-19T05:30:28.807Z,10.85
2023-05-19T05:35:53.670Z,15.68
2023-05-19T05:41:46.804Z,19.13
2023-05-19T05:46:54.923Z,12.10
2023-05-19T05:52:06.170Z,12.80
2023-05-19T05:57:31.511Z,16.15
2023-05-19T06:02:53.660Z,10.32
2023-05-19T06:08:07.560Z,12.10
2023-05-19T06:14:08.530Z,7.43
2023-05-19T06:19:51.470Z,10.38
2023-05-19T06:25:03.181Z,9.30
2023-05-19T06:30:32.835Z,8.18
2023-05-19T06:36:18.681Z,6.78
2023-05-19T06:47:32.588Z,12.15
2023-05-19T06:53:03.262Z,9.43
2023-05-19T06:58:15.767Z,10.85
2023-05-19T07:03:30.058Z,7.25
2023-05-19T07:08:46.929Z,9.85
2023-05-19T07:14:06.946Z,4.30
2023-05-19T07:20:21.563Z,7.35
2023-05-19T07:26:10.277Z,6.60
2023-05-19T07:37:23.047Z,4.85
2023-05-19T07:42:47.687Z,7.20
2023-05-19T07:53:47.891Z,5.85
2023-05-19T07:58:52.150Z,12.13
2023-05-19T08:03:57.515Z,6.32
2023-05-19T08:09:03.695Z,6.00
2023-05-19T08:14:16.051Z,7.43
2023-05-19T08:19:42.931Z,6.85
2023-05-19T08:30:56.424Z,5.78
2023-05-19T08:48:23.735Z,5.38
2023-05-19T08:53:34.552Z,7.13
2023-05-19T08:58:45.993Z,7.57
2023-05-19T09:03:55.493Z,11.30
2023-05-19T09:09:02.682Z,6.15
2023-05-19T09:20:39.593Z,6.82
2023-05-19T09:25:53.501Z,8.27
2023-05-19T09:31:30.854Z,6.18
2023-05-19T09:37:04.946Z,13.10
2023-05-19T09:42:30.429Z,7.43
2023-05-19T09:47:49.217Z,14.57
2023-05-19T09:52:57.802Z,6.28
2023-05-19T09:58:20.092Z,9.75
2023-05-19T10:09:18.008Z,6.55
2023-05-19T10:14:49.183Z,8.48
2023-05-19T10:26:09.358Z,7.25
2023-05-19T10:44:34.922Z,4.85
2023-05-19T10:50:22.203Z,7.72
2023-05-19T11:08:51.562Z,7.13
2023-05-19T11:20:07.394Z,5.72
2023-05-19T11:25:58.036Z,6.25
2023-05-19T11:31:20.050Z,7.22
2023-05-19T11:42:06.114Z,7.53
2023-05-19T11:47:38.746Z,8.40
2023-05-19T11:53:04.696Z,4.80
2023-05-19T11:58:40.924Z,7.00
2023-05-19T12:04:21.152Z,7.13
2023-05-19T12:09:35.964Z,6.00
2023-05-19T12:14:51.220Z,5.63
2023-05-19T12:19:53.460Z,6.00
2023-05-19T12:24:56.309Z,8.27
2023-05-19T12:29:58.624Z,9.85
2023-05-19T12:41:08.563Z,5.70
2023-05-19T12:46:21.725Z,7.40
2023-05-19T12:51:42.339Z,9.93
2023-05-19T12:57:26.459Z,14.27
2023-05-19T13:02:29.214Z,7.25
2023-05-19T13:07:31.638Z,6.82
2023-05-19T13:12:42.799Z,15.50
2023-05-19T13:18:52.979Z,8.40
2023-05-19T13:24:31.583Z,9.00
2023-05-19T13:29:57.665Z,6.97
2023-05-19T13:35:09.013Z,10.50
2023-05-19T13:40:33.506Z,11.27
2023-05-19T13:46:09.275Z,7.35
2023-05-19T13:56:50.103Z,7.43
2023-05-19T14:02:16.897Z,6.78
2023-05-19T14:07:25.997Z,9.40
2023-05-19T14:13:02.458Z,10.82
2023-05-19T14:18:09.269Z,7.88
2023-05-19T14:23:17.347Z,6.63
2023-05-19T14:28:22.347Z,10.43
2023-05-19T14:33:39.616Z,6.13
2023-05-19T14:39:01.757Z,9.27
2023-05-19T14:44:27.208Z,7.28
2023-05-19T14:50:23.688Z,9.90
2023-05-19T14:55:37.203Z,6.55
2023-05-19T15:01:00.651Z,7.88
2023-05-19T15:06:34.136Z,10.80
2023-05-19T15:12:39.729Z,10.23
2023-05-19T15:23:42.450Z,11.20
2023-05-19T15:40:27.723Z,8.40
2023-05-19T15:46:08.246Z,9.02
2023-05-19T15:51:31.658Z,15.73
2023-05-19T15:56:58.258Z,15.30
2023-05-19T16:02:45.111Z,10.70
2023-05-19T16:08:10.543Z,10.70
2023-05-19T16:30:53.030Z,11.45
2023-05-19T16:36:22.529Z,11.77
2023-05-19T16:42:10.828Z,11.95
2023-05-19T16:48:03.066Z,10.32
2023-05-19T16:53:20.788Z,9.98
2023-05-19T17:04:12.055Z,17.55
2023-05-19T17:09:50.754Z,12.00
2023-05-19T17:15:15.510Z,11.80
2023-05-19T17:20:46.953Z,12.73
2023-05-19T17:32:14.194Z,12.98
2023-05-19T17:37:58.079Z,11.90
2023-05-19T17:48:56.921Z,12.77
2023-05-19T18:00:03.203Z,17.95
2023-05-19T18:05:39.478Z,17.40
2023-05-19T18:11:13.089Z,20.42
2023-05-19T18:22:22.315Z,18.85
2023-05-19T18:34:21.142Z,13.95
2023-05-19T18:40:07.365Z,16.95
2023-05-19T18:45:27.778Z,14.98
2023-05-19T18:56:30.850Z,17.17
2023-05-19T19:01:46.740Z,10.52
2023-05-19T19:07:56.919Z,10.38
2023-05-19T19:13:23.679Z,11.18
2023-05-19T19:18:43.359Z,11.77
2023-05-19T19:24:06.288Z,13.80
2023-05-19T19:35:30.582Z,15.77
2023-05-19T19:47:52.592Z,16.00
2023-05-19T19:53:14.119Z,16.83
2023-05-19T19:58:45.445Z,31.95
2023-05-19T20:03:59.213Z,53.03
2023-05-19T20:09:36.233Z,27.13
2023-05-19T20:20:40.007Z,32.08
2023-05-19T20:26:27.653Z,22.83
2023-05-19T20:31:39.803Z,21.85
2023-05-19T20:37:32.198Z,20.92
2023-05-19T20:55:39.143Z,17.73
2023-05-19T21:01:17.936Z,18.50
2023-05-19T21:07:06.549Z,16.02
2023-05-19T21:12:36.267Z,17.63
2023-05-19T21:18:14.922Z,13.38
2023-05-19T21:23:57.193Z,15.07
2023-05-19T21:29:15.111Z,17.58
2023-05-19T21:35:29.090Z,19.33
2023-05-19T21:40:47.098Z,18.27
2023-05-19T21:46:08.717Z,22.20
2023-05-19T21:51:53.205Z,16.92
2023-05-19T21:57:33.656Z,15.88
2023-05-19T22:03:18.485Z,20.45
2023-05-19T22:15:19.660Z,20.45
2023-05-19T22:20:59.869Z,21.20
2023-05-19T22:26:12.872Z,20.45
2023-05-19T22:43:02.723Z,20.50
2023-05-19T22:48:40.821Z,13.55
2023-05-19T22:54:12.324Z,13.27
2023-05-19T22:59:59.596Z,12.35
2023-05-19T23:10:43.578Z,11.63
2023-05-19T23:15:58.402Z,13.10
2023-05-19T23:27:09.884Z,16.15
2023-05-19T23:32:36.635Z,14.20
2023-05-19T23:38:29.192Z,17.80
2023-05-19T23:44:06.924Z,17.15
2023-05-19T23:49:34.384Z,12.93
2023-05-19T23:54:56.629Z,13.70
